Time;durP1;ratioP1;P1;durP2;ratioP2;P2;SDS_P1;SDS_P2;PMS_P1;PMS_P2;Temp;Humidity;BMP_temperature;BMP_pressure;BME280_temperature;BME280_humidity;BME280_pressure;Samples;Min_cycle;Max_cycle;Signal;HPM_P1;HPM_P2
2024/04/04 00:00:44;;;;;;;13.30;12.00;;;;;;;;;;4880110;29;20217;-84
2024/04/04 00:03:11;;;;;;;14.50;13.03;;;;;;;;;;4864229;29;20290;-83
2024/04/04 00:05:41;;;;;;;15.80;14.20;;;;;;;;;;4857185;29;20230;-82
2024/04/04 00:08:09;;;;;;;17.33;13.60;;;;;;;;;;4868152;29;20449;-83
2024/04/04 00:10:35;;;;;;;15.67;13.80;;;;;;;;;;4886634;29;20220;-83
2024/04/04 00:13:01;;;;;;;15.87;14.03;;;;;;;;;;4872912;29;20285;-82
2024/04/04 00:15:27;;;;;;;17.73;14.40;;;;;;;;;;4863102;29;20218;-85
2024/04/04 00:17:52;;;;;;;16.80;14.03;;;;;;;;;;4890262;29;20273;-85
2024/04/04 00:20:21;;;;;;;17.40;15.30;;;;;;;;;;4874589;29;20219;-85
2024/04/04 00:22:46;;;;;;;17.33;14.77;;;;;;;;;;4891866;29;20261;-85
2024/04/04 00:25:15;;;;;;;17.87;15.20;;;;;;;;;;4873592;29;20231;-84
2024/04/04 00:27:41;;;;;;;17.37;15.47;;;;;;;;;;4864041;29;20221;-80
2024/04/04 00:30:07;;;;;;;16.60;14.90;;;;;;;;;;4867614;29;20297;-82
2024/04/04 00:32:32;;;;;;;18.37;15.30;;;;;;;;;;4880870;29;20237;-82
2024/04/04 00:35:01;;;;;;;17.47;15.77;;;;;;;;;;4849151;29;20212;-83
2024/04/04 00:37:26;;;;;;;18.10;15.93;;;;;;;;;;4879510;29;20237;-85
2024/04/04 00:39:54;;;;;;;19.70;16.40;;;;;;;;;;4881416;29;20284;-81
2024/04/04 00:42:31;;;;;;;18.80;15.47;;;;;;;;;;4862795;29;20201;-82
2024/04/04 00:44:56;;;;;;;18.83;15.80;;;;;;;;;;4878359;29;20220;-82
2024/04/04 00:47:22;;;;;;;21.87;16.53;;;;;;;;;;4873671;29;20313;-84
2024/04/04 00:49:47;;;;;;;19.80;16.20;;;;;;;;;;4859779;29;20370;-84
2024/04/04 00:52:20;;;;;;;21.17;16.27;;;;;;;;;;4871367;29;20221;-86
2024/04/04 00:54:47;;;;;;;19.47;15.07;;;;;;;;;;4869297;29;20614;-84
2024/04/04 00:57:13;;;;;;;18.37;15.53;;;;;;;;;;4856812;29;20225;-85
2024/04/04 00:59:38;;;;;;;18.13;15.10;;;;;;;;;;4871200;29;20249;-83
2024/04/04 01:02:06;;;;;;;17.03;15.23;;;;;;;;;;4852148;29;20281;-84
2024/04/04 01:04:32;;;;;;;19.63;14.53;;;;;;;;;;4871696;29;20261;-84
2024/04/04 01:06:59;;;;;;;21.60;15.33;;;;;;;;;;4872557;29;20222;-85
2024/04/04 01:09:30;;;;;;;19.97;14.90;;;;;;;;;;4861253;29;20222;-84
2024/04/04 01:11:55;;;;;;;19.83;14.70;;;;;;;;;;4867656;29;20230;-84
2024/04/04 01:14:30;;;;;;;19.80;14.50;;;;;;;;;;4879060;29;20225;-84
2024/04/04 01:17:00;;;;;;;21.17;15.40;;;;;;;;;;4861475;29;20234;-85
2024/04/04 01:19:26;;;;;;;17.67;14.63;;;;;;;;;;4861963;29;20716;-84
2024/04/04 01:21:54;;;;;;;18.67;14.20;;;;;;;;;;4858238;29;20233;-87
2024/04/04 01:24:19;;;;;;;21.63;14.47;;;;;;;;;;4865551;29;20230;-85
2024/04/04 01:26:45;;;;;;;18.77;13.93;;;;;;;;;;4886684;29;20240;-84
2024/04/04 01:29:10;;;;;;;16.10;13.37;;;;;;;;;;4873626;29;20224;-83
2024/04/04 01:31:36;;;;;;;15.40;13.30;;;;;;;;;;4835153;29;20674;-84
2024/04/04 01:34:01;;;;;;;18.10;13.13;;;;;;;;;;4846185;29;20230;-84
2024/04/04 01:36:27;;;;;;;15.47;12.90;;;;;;;;;;4865914;29;20307;-84
2024/04/04 01:38:53;;;;;;;16.57;12.57;;;;;;;;;;4857415;29;20258;-85
2024/04/04 01:41:21;;;;;;;17.30;12.57;;;;;;;;;;4867222;29;20225;-83
2024/04/04 01:43:48;;;;;;;14.80;12.33;;;;;;;;;;4878315;29;20248;-84
2024/04/04 01:46:19;;;;;;;16.17;11.70;;;;;;;;;;4849707;29;20225;-84
2024/04/04 01:48:46;;;;;;;13.87;12.00;;;;;;;;;;4844925;29;20280;-85
2024/04/04 01:51:12;;;;;;;18.57;12.93;;;;;;;;;;4869108;29;20232;-84
2024/04/04 01:53:42;;;;;;;13.83;12.23;;;;;;;;;;4859390;29;20228;-84
2024/04/04 01:56:10;;;;;;;16.83;12.20;;;;;;;;;;4866821;29;20647;-85
2024/04/04 01:58:36;;;;;;;16.23;12.33;;;;;;;;;;4835439;29;20225;-85
2024/04/04 02:01:04;;;;;;;12.97;11.63;;;;;;;;;;4882270;29;20294;-85
2024/04/04 02:03:29;;;;;;;16.50;12.47;;;;;;;;;;4870910;29;20225;-85
2024/04/04 02:05:57;;;;;;;14.33;12.10;;;;;;;;;;4869123;29;20575;-85
2024/04/04 02:08:22;;;;;;;13.40;11.73;;;;;;;;;;4858341;29;21851;-84
2024/04/04 02:10:50;;;;;;;15.47;11.87;;;;;;;;;;4868082;29;20238;-83
2024/04/04 02:13:16;;;;;;;14.37;11.30;;;;;;;;;;4885595;29;20603;-85
2024/04/04 02:15:47;;;;;;;15.80;11.03;;;;;;;;;;4866966;29;20228;-85
2024/04/04 02:18:14;;;;;;;12.93;10.47;;;;;;;;;;4864502;29;20720;-84
2024/04/04 02:20:40;;;;;;;16.50;10.00;;;;;;;;;;4865319;29;20240;-83
2024/04/04 02:23:10;;;;;;;13.10;9.50;;;;;;;;;;4850505;29;20225;-84
2024/04/04 02:25:39;;;;;;;14.47;9.30;;;;;;;;;;4844548;29;20261;-85
2024/04/04 02:28:05;;;;;;;11.43;8.60;;;;;;;;;;4866640;29;20233;-87
2024/04/04 02:30:33;;;;;;;11.77;8.10;;;;;;;;;;4845400;29;20580;-84
2024/04/04 02:32:58;;;;;;;11.27;8.00;;;;;;;;;;4851168;29;20232;-87
2024/04/04 02:35:26;;;;;;;9.30;7.50;;;;;;;;;;4864986;29;20852;-83
2024/04/04 02:37:51;;;;;;;9.37;6.40;;;;;;;;;;4851645;29;20229;-85
2024/04/04 02:40:18;;;;;;;8.07;6.27;;;;;;;;;;4865526;29;20399;-83
2024/04/04 02:42:46;;;;;;;11.20;5.73;;;;;;;;;;4851499;29;20606;-84
2024/04/04 02:45:14;;;;;;;9.17;5.80;;;;;;;;;;4856988;29;20754;-86
2024/04/04 02:47:42;;;;;;;8.20;5.10;;;;;;;;;;4847527;29;20240;-86
2024/04/04 02:50:08;;;;;;;11.90;5.10;;;;;;;;;;4880563;29;20229;-85
2024/04/04 02:52:33;;;;;;;8.53;4.43;;;;;;;;;;4867126;29;20233;-84
2024/04/04 02:55:01;;;;;;;9.13;4.50;;;;;;;;;;4863151;29;20262;-85
2024/04/04 02:57:27;;;;;;;8.37;4.13;;;;;;;;;;4852200;29;20235;-85
2024/04/04 02:59:55;;;;;;;8.73;3.97;;;;;;;;;;4846679;29;20226;-84
2024/04/04 03:02:23;;;;;;;6.57;3.60;;;;;;;;;;4851748;29;20257;-84
2024/04/04 03:04:51;;;;;;;5.53;3.43;;;;;;;;;;4867114;29;20213;-85
2024/04/04 03:07:16;;;;;;;7.23;2.80;;;;;;;;;;4860006;29;20704;-85
2024/04/04 03:09:42;;;;;;;5.17;3.07;;;;;;;;;;4862507;29;20232;-85
2024/04/04 03:12:07;;;;;;;5.33;2.87;;;;;;;;;;4863350;29;20241;-84
2024/04/04 03:14:35;;;;;;;7.87;3.13;;;;;;;;;;4865519;29;20234;-85
2024/04/04 03:17:00;;;;;;;5.50;2.67;;;;;;;;;;4852381;29;20310;-83
2024/04/04 03:19:28;;;;;;;8.67;2.43;;;;;;;;;;4862378;29;20237;-84
2024/04/04 03:21:56;;;;;;;5.00;2.07;;;;;;;;;;4849268;29;20221;-83
2024/04/04 03:24:21;;;;;;;7.80;2.40;;;;;;;;;;4851273;29;20230;-85
2024/04/04 03:26:49;;;;;;;4.53;2.43;;;;;;;;;;4863159;29;20233;-86
2024/04/04 03:29:15;;;;;;;3.80;1.90;;;;;;;;;;4846965;29;20233;-86
2024/04/04 03:31:43;;;;;;;5.77;2.03;;;;;;;;;;4861382;29;20319;-82
2024/04/04 03:34:10;;;;;;;6.97;2.13;;;;;;;;;;4860533;29;20695;-86
2024/04/04 03:36:41;;;;;;;5.27;1.97;;;;;;;;;;4864561;29;20225;-86
2024/04/04 03:39:06;;;;;;;4.73;2.10;;;;;;;;;;4843049;29;20241;-85
2024/04/04 03:41:36;;;;;;;8.23;2.10;;;;;;;;;;4863022;29;20377;-84
2024/04/04 03:44:02;;;;;;;5.67;2.00;;;;;;;;;;4868392;29;20742;-84
2024/04/04 03:46:27;;;;;;;5.57;2.40;;;;;;;;;;4863130;29;20969;-85
2024/04/04 03:48:53;;;;;;;7.23;2.00;;;;;;;;;;4865636;29;20240;-83
2024/04/04 03:51:21;;;;;;;6.27;2.60;;;;;;;;;;4876371;29;20249;-79
2024/04/04 03:53:46;;;;;;;3.97;2.73;;;;;;;;;;4889560;29;20234;-79
2024/04/04 03:56:14;;;;;;;6.83;1.87;;;;;;;;;;4840205;29;20234;-79
2024/04/04 04:02:29;;;;;;;6.90;2.10;;;;;;;;;;4874564;29;20239;-79
2024/04/04 04:04:57;;;;;;;5.37;2.20;;;;;;;;;;4857253;29;20320;-79
2024/04/04 04:07:29;;;;;;;6.93;2.63;;;;;;;;;;4844347;29;25477;-79
2024/04/04 04:09:57;;;;;;;5.67;2.87;;;;;;;;;;4859843;29;20260;-79
2024/04/04 04:12:25;;;;;;;6.43;3.30;;;;;;;;;;4886054;29;20225;-79
2024/04/04 04:14:50;;;;;;;7.93;3.60;;;;;;;;;;4872980;29;20228;-79
2024/04/04 04:17:18;;;;;;;6.87;2.57;;;;;;;;;;4855368;29;20235;-78
2024/04/04 04:19:43;;;;;;;5.43;2.10;;;;;;;;;;4844119;29;20293;-79
2024/04/04 04:22:09;;;;;;;6.10;2.10;;;;;;;;;;4840491;29;20238;-79
2024/04/04 04:24:35;;;;;;;6.13;2.23;;;;;;;;;;4872731;29;20218;-78
2024/04/04 04:27:03;;;;;;;4.63;2.20;;;;;;;;;;4845991;29;20233;-78
2024/04/04 04:29:29;;;;;;;9.17;2.10;;;;;;;;;;4861780;29;20321;-78
2024/04/04 04:31:56;;;;;;;7.17;2.03;;;;;;;;;;4862681;29;20232;-79
2024/04/04 04:34:22;;;;;;;6.27;2.00;;;;;;;;;;4860474;29;20257;-78
2024/04/04 04:36:54;;;;;;;6.83;2.00;;;;;;;;;;4857028;29;20581;-78
2024/04/04 04:39:20;;;;;;;6.20;2.07;;;;;;;;;;4886737;29;20248;-79
2024/04/04 04:41:48;;;;;;;9.43;2.23;;;;;;;;;;4845978;29;20609;-78
2024/04/04 04:44:15;;;;;;;10.90;2.13;;;;;;;;;;4858978;29;20224;-79
2024/04/04 04:46:43;;;;;;;6.53;1.90;;;;;;;;;;4877157;29;20237;-79
2024/04/04 04:49:11;;;;;;;7.43;1.90;;;;;;;;;;4874871;29;20811;-79
2024/04/04 04:51:39;;;;;;;4.43;1.80;;;;;;;;;;4882893;29;20220;-78
2024/04/04 04:54:05;;;;;;;8.43;2.10;;;;;;;;;;4853227;29;20226;-79
2024/04/04 04:56:31;;;;;;;6.87;2.13;;;;;;;;;;4843690;29;20306;-79
2024/04/04 04:58:59;;;;;;;5.63;1.77;;;;;;;;;;4846362;29;20987;-78
2024/04/04 05:01:26;;;;;;;4.83;2.00;;;;;;;;;;4860506;29;20230;-78
2024/04/04 05:03:52;;;;;;;5.40;2.00;;;;;;;;;;4860207;29;20236;-78
2024/04/04 05:06:20;;;;;;;6.20;2.03;;;;;;;;;;4859970;29;20238;-79
2024/04/04 05:08:46;;;;;;;5.87;1.70;;;;;;;;;;4831070;29;20225;-79
2024/04/04 05:11:13;;;;;;;6.00;1.90;;;;;;;;;;4877929;29;20230;-78
2024/04/04 05:13:38;;;;;;;7.03;1.93;;;;;;;;;;4872282;29;20222;-78
2024/04/04 05:16:04;;;;;;;8.40;2.10;;;;;;;;;;4840033;29;20692;-79
2024/04/04 05:18:30;;;;;;;8.97;1.97;;;;;;;;;;4861039;29;20264;-79
2024/04/04 05:21:01;;;;;;;7.50;2.00;;;;;;;;;;4879243;29;20229;-79
2024/04/04 05:23:27;;;;;;;4.53;1.90;;;;;;;;;;4860388;29;20281;-79
2024/04/04 05:25:53;;;;;;;7.40;2.00;;;;;;;;;;4862398;29;20244;-79
2024/04/04 05:28:20;;;;;;;5.60;1.73;;;;;;;;;;4889402;29;20222;-79
2024/04/04 05:30:46;;;;;;;7.87;2.10;;;;;;;;;;4874166;29;20607;-79
2024/04/04 05:33:11;;;;;;;5.47;2.00;;;;;;;;;;4891340;29;20234;-77
2024/04/04 05:35:39;;;;;;;5.60;2.00;;;;;;;;;;4848459;29;20232;-79
2024/04/04 05:38:07;;;;;;;6.70;2.10;;;;;;;;;;4872282;29;20221;-78
2024/04/04 05:40:35;;;;;;;6.10;1.87;;;;;;;;;;4874436;29;20252;-78
2024/04/04 05:43:01;;;;;;;4.27;1.70;;;;;;;;;;4864106;29;20288;-78
2024/04/04 05:45:26;;;;;;;7.23;2.40;;;;;;;;;;4891588;29;20292;-79
2024/04/04 05:47:52;;;;;;;5.60;1.80;;;;;;;;;;4860581;29;20674;-78
2024/04/04 05:50:17;;;;;;;3.87;1.93;;;;;;;;;;4861676;29;20364;-79
2024/04/04 05:52:45;;;;;;;3.40;1.80;;;;;;;;;;4852007;29;20332;-79
2024/04/04 05:55:11;;;;;;;6.43;1.53;;;;;;;;;;4855050;29;20241;-77
2024/04/04 05:57:37;;;;;;;4.60;1.80;;;;;;;;;;4840246;29;20222;-78
2024/04/04 06:00:03;;;;;;;7.63;1.63;;;;;;;;;;4845836;29;20232;-78
2024/04/04 06:02:40;;;;;;;3.20;1.63;;;;;;;;;;4872940;29;20233;-79
2024/04/04 06:05:09;;;;;;;5.23;1.70;;;;;;;;;;4858827;29;20238;-79
2024/04/04 06:07:36;;;;;;;5.10;1.60;;;;;;;;;;4854763;29;20608;-80
2024/04/04 06:10:07;;;;;;;5.67;1.50;;;;;;;;;;4876846;29;21520;-80
2024/04/04 06:12:33;;;;;;;6.53;1.67;;;;;;;;;;4860415;29;20253;-80
2024/04/04 06:14:58;;;;;;;3.77;1.60;;;;;;;;;;4849728;29;20226;-78
2024/04/04 06:17:24;;;;;;;5.20;1.60;;;;;;;;;;4857350;29;20266;-78
2024/04/04 06:19:52;;;;;;;4.37;1.27;;;;;;;;;;4878404;29;20244;-79
2024/04/04 06:22:17;;;;;;;4.50;1.30;;;;;;;;;;4865646;29;20296;-78
2024/04/04 06:24:44;;;;;;;6.27;1.50;;;;;;;;;;4880022;29;20255;-80
2024/04/04 06:27:10;;;;;;;6.53;1.50;;;;;;;;;;4861780;29;20237;-80
2024/04/04 06:29:38;;;;;;;5.63;1.80;;;;;;;;;;4877891;29;20236;-79
2024/04/04 06:32:05;;;;;;;2.97;1.20;;;;;;;;;;4858959;29;20671;-78
2024/04/04 06:34:34;;;;;;;4.27;1.20;;;;;;;;;;4863111;29;20278;-79
2024/04/04 06:37:05;;;;;;;5.80;1.37;;;;;;;;;;4863180;29;20240;-78
2024/04/04 06:39:30;;;;;;;5.53;1.83;;;;;;;;;;4868242;29;20233;-81
2024/04/04 06:41:56;;;;;;;3.07;1.10;;;;;;;;;;4874513;29;20225;-79
2024/04/04 06:44:21;;;;;;;3.13;1.10;;;;;;;;;;4860707;29;20237;-78
2024/04/04 06:46:52;;;;;;;4.50;1.47;;;;;;;;;;4877208;29;20232;-79
2024/04/04 06:49:17;;;;;;;4.90;1.30;;;;;;;;;;4857051;29;20550;-79
2024/04/04 06:51:48;;;;;;;4.10;1.23;;;;;;;;;;4856751;29;20578;-78
2024/04/04 06:54:15;;;;;;;4.27;1.27;;;;;;;;;;4861807;29;20679;-79
2024/04/04 06:56:41;;;;;;;6.10;1.30;;;;;;;;;;4843889;29;20240;-79
2024/04/04 06:59:07;;;;;;;4.37;1.17;;;;;;;;;;4873979;29;20237;-78
2024/04/04 07:01:32;;;;;;;3.03;1.10;;;;;;;;;;4843434;29;20230;-79
2024/04/04 07:04:01;;;;;;;5.40;1.33;;;;;;;;;;4862437;29;20244;-79
2024/04/04 07:06:26;;;;;;;3.93;1.17;;;;;;;;;;4862445;29;20233;-80
2024/04/04 07:08:53;;;;;;;3.63;1.10;;;;;;;;;;4874481;29;20268;-78
2024/04/04 07:11:19;;;;;;;3.80;0.90;;;;;;;;;;4860550;29;20229;-80
2024/04/04 07:13:44;;;;;;;5.87;1.23;;;;;;;;;;4861446;29;20707;-80
2024/04/04 07:16:11;;;;;;;4.80;1.30;;;;;;;;;;4858326;29;20873;-79
2024/04/04 07:18:42;;;;;;;2.50;1.40;;;;;;;;;;4859212;29;20245;-79
2024/04/04 07:21:07;;;;;;;3.50;1.30;;;;;;;;;;4873828;29;20226;-79
2024/04/04 07:23:33;;;;;;;4.83;1.40;;;;;;;;;;4861105;29;20296;-79
2024/04/04 07:25:59;;;;;;;3.53;1.27;;;;;;;;;;4860559;29;20225;-78
2024/04/04 07:28:24;;;;;;;4.13;1.00;;;;;;;;;;4857600;29;20326;-80
2024/04/04 07:30:52;;;;;;;4.20;1.00;;;;;;;;;;4863751;29;20221;-79
2024/04/04 07:33:20;;;;;;;3.63;1.20;;;;;;;;;;4854226;29;20222;-80
2024/04/04 07:35:45;;;;;;;3.87;1.07;;;;;;;;;;4889265;29;21007;-80
2024/04/04 07:38:12;;;;;;;4.57;1.20;;;;;;;;;;4874439;29;20284;-79
2024/04/04 07:40:40;;;;;;;7.00;3.43;;;;;;;;;;4885354;29;20230;-79
2024/04/04 07:43:06;;;;;;;4.70;1.33;;;;;;;;;;4870725;29;20256;-79
2024/04/04 07:45:41;;;;;;;7.97;1.37;;;;;;;;;;4861174;29;20240;-79
2024/04/04 07:48:14;;;;;;;4.07;1.40;;;;;;;;;;4858217;29;20229;-81
2024/04/04 07:50:40;;;;;;;3.03;0.97;;;;;;;;;;4861501;29;20240;-78
2024/04/04 07:53:07;;;;;;;4.97;1.30;;;;;;;;;;4876734;29;20226;-79
2024/04/04 07:55:33;;;;;;;6.83;1.20;;;;;;;;;;4855178;29;20456;-80
2024/04/04 07:57:58;;;;;;;4.73;1.27;;;;;;;;;;4878126;29;20651;-80
2024/04/04 08:00:27;;;;;;;3.90;1.50;;;;;;;;;;4844075;29;20222;-80
2024/04/04 08:02:53;;;;;;;3.63;1.30;;;;;;;;;;4883581;29;20227;-81
2024/04/04 08:05:20;;;;;;;4.63;1.43;;;;;;;;;;4862642;29;20229;-80
2024/04/04 08:07:46;;;;;;;3.27;1.17;;;;;;;;;;4871964;29;20225;-81
2024/04/04 08:10:14;;;;;;;2.57;1.10;;;;;;;;;;4867911;29;20292;-79
2024/04/04 08:12:39;;;;;;;7.13;1.50;;;;;;;;;;4843596;29;20229;-81
2024/04/04 08:15:09;;;;;;;5.53;1.30;;;;;;;;;;4847919;29;20218;-77
2024/04/04 08:17:40;;;;;;;5.13;1.40;;;;;;;;;;4873189;29;20229;-78
2024/04/04 08:20:08;;;;;;;3.63;1.23;;;;;;;;;;4866120;29;20244;-79
2024/04/04 08:22:36;;;;;;;3.80;1.17;;;;;;;;;;4880374;29;20246;-81
2024/04/04 08:25:03;;;;;;;3.20;1.20;;;;;;;;;;4863751;29;20266;-78
2024/04/04 08:27:30;;;;;;;4.47;1.20;;;;;;;;;;4846819;29;20225;-78
2024/04/04 08:29:58;;;;;;;3.27;1.33;;;;;;;;;;4845233;29;20256;-80
2024/04/04 08:32:26;;;;;;;6.87;1.40;;;;;;;;;;4878932;29;20787;-80
2024/04/04 08:34:52;;;;;;;5.73;1.30;;;;;;;;;;4876013;29;20222;-80
2024/04/04 08:37:18;;;;;;;5.00;1.20;;;;;;;;;;4851462;29;20233;-78
2024/04/04 08:39:43;;;;;;;4.17;1.30;;;;;;;;;;4882472;29;20226;-78
2024/04/04 08:42:09;;;;;;;3.67;1.07;;;;;;;;;;4844178;29;20294;-80
2024/04/04 08:44:36;;;;;;;4.93;1.30;;;;;;;;;;4861049;29;20221;-80
2024/04/04 08:47:05;;;;;;;4.60;1.20;;;;;;;;;;4846869;29;20325;-79
2024/04/04 08:49:31;;;;;;;8.03;3.40;;;;;;;;;;4863460;29;20699;-79
2024/04/04 08:51:59;;;;;;;11.57;7.57;;;;;;;;;;4843116;29;20245;-79
2024/04/04 08:54:27;;;;;;;6.33;1.70;;;;;;;;;;4875934;29;20221;-78
2024/04/04 08:56:55;;;;;;;5.13;1.43;;;;;;;;;;4890716;29;20263;-79
2024/04/04 08:59:26;;;;;;;4.10;1.20;;;;;;;;;;4858961;29;20228;-79
2024/04/04 09:01:51;;;;;;;3.33;1.30;;;;;;;;;;4846949;29;20256;-79
2024/04/04 09:04:27;;;;;;;4.53;1.50;;;;;;;;;;4863074;29;20217;-78
2024/04/04 09:06:53;;;;;;;5.20;1.53;;;;;;;;;;4875128;29;20260;-79
2024/04/04 09:09:19;;;;;;;3.63;1.40;;;;;;;;;;4875038;29;20229;-79
2024/04/04 09:11:45;;;;;;;3.13;1.30;;;;;;;;;;4856854;29;20237;-79
2024/04/04 09:14:11;;;;;;;5.70;1.60;;;;;;;;;;4845031;29;20245;-79
2024/04/04 09:16:39;;;;;;;6.70;1.50;;;;;;;;;;4845623;29;20229;-79
2024/04/04 09:19:11;;;;;;;4.77;1.60;;;;;;;;;;4876497;29;20237;-78
2024/04/04 09:21:37;;;;;;;5.23;1.70;;;;;;;;;;4853671;29;20292;-79
2024/04/04 09:24:08;;;;;;;3.80;1.50;;;;;;;;;;4864395;29;20316;-78
2024/04/04 09:26:35;;;;;;;2.47;1.40;;;;;;;;;;4849775;29;20317;-79
2024/04/04 09:29:02;;;;;;;5.03;1.60;;;;;;;;;;4874910;29;20226;-79
2024/04/04 09:31:29;;;;;;;3.90;1.70;;;;;;;;;;4860832;29;20229;-79
2024/04/04 09:33:57;;;;;;;7.67;1.70;;;;;;;;;;4863305;29;20230;-79
2024/04/04 09:36:26;;;;;;;4.00;1.80;;;;;;;;;;4863039;29;20229;-80
2024/04/04 09:38:55;;;;;;;5.13;1.53;;;;;;;;;;4848205;29;20324;-80
2024/04/04 09:41:21;;;;;;;2.33;1.60;;;;;;;;;;4863124;29;20293;-79
2024/04/04 09:43:50;;;;;;;3.47;1.70;;;;;;;;;;4847476;29;20261;-80
2024/04/04 09:46:18;;;;;;;3.73;1.80;;;;;;;;;;4861222;29;20306;-80
2024/04/04 09:48:46;;;;;;;3.60;1.53;;;;;;;;;;4861324;29;20755;-80
2024/04/04 09:51:14;;;;;;;2.90;1.57;;;;;;;;;;4862141;29;20289;-79
2024/04/04 09:53:41;;;;;;;5.70;1.97;;;;;;;;;;4859977;29;20233;-79
2024/04/04 09:56:08;;;;;;;3.20;1.67;;;;;;;;;;4859371;29;20252;-79
2024/04/04 09:58:34;;;;;;;3.07;1.63;;;;;;;;;;4870949;29;20237;-78
2024/04/04 10:01:19;;;;;;;2.90;1.67;;;;;;;;;;4860679;29;20229;-79
2024/04/04 10:03:58;;;;;;;3.97;1.80;;;;;;;;;;4855414;29;20640;-78
2024/04/04 10:06:44;;;;;;;2.37;1.63;;;;;;;;;;4859328;29;20317;-78
2024/04/04 10:09:20;;;;;;;4.00;1.73;;;;;;;;;;4878077;29;20249;-79
2024/04/04 10:11:49;;;;;;;3.00;1.53;;;;;;;;;;4876840;29;20232;-79
2024/04/04 10:14:23;;;;;;;2.00;1.57;;;;;;;;;;4877487;29;20241;-79
2024/04/04 10:16:54;;;;;;;2.53;1.77;;;;;;;;;;4849620;29;20221;-78
2024/04/04 10:19:21;;;;;;;3.07;1.70;;;;;;;;;;4847974;29;20241;-80
2024/04/04 10:21:48;;;;;;;3.40;1.60;;;;;;;;;;4876708;29;20230;-79
2024/04/04 10:24:26;;;;;;;4.07;1.60;;;;;;;;;;4864903;29;20240;-78
2024/04/04 10:26:57;;;;;;;2.17;1.57;;;;;;;;;;4876818;29;20637;-78
2024/04/04 10:29:38;;;;;;;3.50;1.83;;;;;;;;;;4891063;29;21852;-79
2024/04/04 10:32:08;;;;;;;1.93;1.60;;;;;;;;;;4847212;29;20663;-79
2024/04/04 10:34:36;;;;;;;2.97;1.63;;;;;;;;;;4874719;29;20229;-79
2024/04/04 10:37:03;;;;;;;2.10;1.50;;;;;;;;;;4862249;29;20274;-79
2024/04/04 10:39:28;;;;;;;2.80;2.27;;;;;;;;;;4845002;29;20233;-78
2024/04/04 10:41:58;;;;;;;1.67;1.50;;;;;;;;;;4860631;29;20255;-80
2024/04/04 10:44:24;;;;;;;2.10;1.43;;;;;;;;;;4860296;29;20292;-80
2024/04/04 10:46:51;;;;;;;2.73;1.20;;;;;;;;;;4864564;29;20260;-78
2024/04/04 10:49:17;;;;;;;2.10;1.30;;;;;;;;;;4890550;29;20249;-78
2024/04/04 10:51:54;;;;;;;2.33;1.57;;;;;;;;;;4863072;29;20217;-79
2024/04/04 10:54:20;;;;;;;3.07;1.40;;;;;;;;;;4861409;29;20362;-78
2024/04/04 10:56:46;;;;;;;1.87;1.50;;;;;;;;;;4844925;29;20312;-77
2024/04/04 10:59:18;;;;;;;3.17;1.60;;;;;;;;;;4863202;29;20229;-80
2024/04/04 11:01:49;;;;;;;3.67;1.70;;;;;;;;;;4855038;29;20576;-78
2024/04/04 11:04:15;;;;;;;1.87;1.70;;;;;;;;;;4854925;29;20238;-78
2024/04/04 11:06:43;;;;;;;1.63;1.50;;;;;;;;;;4860255;29;20230;-81
2024/04/04 11:09:11;;;;;;;1.60;1.20;;;;;;;;;;4845774;29;20242;-79
2024/04/04 11:11:42;;;;;;;3.37;1.40;;;;;;;;;;4841872;29;20229;-78
2024/04/04 11:14:08;;;;;;;3.73;1.70;;;;;;;;;;4878141;29;20277;-78
2024/04/04 11:16:37;;;;;;;2.50;1.67;;;;;;;;;;4892258;29;20222;-78
2024/04/04 11:19:02;;;;;;;1.97;1.30;;;;;;;;;;4860013;29;20277;-79
2024/04/04 11:21:28;;;;;;;1.67;1.20;;;;;;;;;;4878676;29;20316;-78
2024/04/04 11:23:53;;;;;;;2.10;2.00;;;;;;;;;;4851273;29;20290;-79
2024/04/04 11:26:20;;;;;;;1.50;1.40;;;;;;;;;;4866461;29;20320;-79
2024/04/04 11:28:46;;;;;;;1.60;1.50;;;;;;;;;;4866031;29;20252;-78
2024/04/04 11:31:14;;;;;;;2.67;1.70;;;;;;;;;;4879531;29;20225;-79
2024/04/04 11:33:39;;;;;;;3.20;1.53;;;;;;;;;;4844505;29;20222;-79
2024/04/04 11:36:05;;;;;;;1.73;1.53;;;;;;;;;;4893964;29;20232;-79
2024/04/04 11:38:33;;;;;;;1.93;1.40;;;;;;;;;;4842926;29;20276;-78
2024/04/04 11:41:01;;;;;;;1.50;1.30;;;;;;;;;;4876896;29;20236;-79
2024/04/04 11:43:27;;;;;;;1.80;1.30;;;;;;;;;;4863038;29;20285;-79
2024/04/04 11:45:52;;;;;;;1.43;1.10;;;;;;;;;;4880268;29;20235;-79
2024/04/04 11:48:18;;;;;;;1.40;1.30;;;;;;;;;;4860710;29;20237;-79
2024/04/04 11:50:46;;;;;;;2.17;1.43;;;;;;;;;;4864049;29;20235;-79
2024/04/04 11:53:15;;;;;;;2.87;1.50;;;;;;;;;;4864406;29;20660;-79
2024/04/04 11:55:41;;;;;;;4.77;1.40;;;;;;;;;;4861000;29;20225;-77
2024/04/04 11:58:07;;;;;;;1.47;1.20;;;;;;;;;;4860152;29;20293;-77
2024/04/04 12:00:32;;;;;;;2.33;1.20;;;;;;;;;;4870314;29;20229;-79
2024/04/04 12:03:00;;;;;;;2.03;1.20;;;;;;;;;;4872440;29;20230;-78
2024/04/04 12:05:26;;;;;;;1.63;1.00;;;;;;;;;;4852724;29;20235;-78
2024/04/04 12:07:52;;;;;;;1.43;1.30;;;;;;;;;;4874894;29;20229;-78
2024/04/04 12:10:18;;;;;;;2.00;1.30;;;;;;;;;;4860233;29;20605;-79
2024/04/04 12:12:43;;;;;;;2.63;2.13;;;;;;;;;;4858460;29;20225;-78
2024/04/04 12:15:09;;;;;;;1.70;1.20;;;;;;;;;;4886901;29;20230;-78
2024/04/04 12:17:38;;;;;;;3.30;1.33;;;;;;;;;;4852313;29;20222;-78
2024/04/04 12:20:08;;;;;;;1.30;1.20;;;;;;;;;;4869047;29;21014;-80
2024/04/04 12:22:38;;;;;;;1.02;1.00;;;;;;;;;;4863810;29;20411;-79
2024/04/04 12:25:04;;;;;;;1.90;1.08;;;;;;;;;;4879462;29;20229;-79
2024/04/04 12:27:32;;;;;;;1.83;1.00;;;;;;;;;;4833608;29;20221;-78
2024/04/04 12:30:00;;;;;;;1.23;0.80;;;;;;;;;;4868358;29;20805;-79
2024/04/04 12:32:25;;;;;;;2.20;1.00;;;;;;;;;;4869455;29;20642;-78
2024/04/04 12:34:53;;;;;;;2.23;1.37;;;;;;;;;;4865541;29;20726;-78
2024/04/04 12:37:21;;;;;;;2.53;1.30;;;;;;;;;;4864476;29;20222;-79
2024/04/04 12:39:49;;;;;;;1.33;1.10;;;;;;;;;;4879341;29;20784;-77
2024/04/04 12:42:14;;;;;;;1.20;1.10;;;;;;;;;;4858805;29;20221;-79
2024/04/04 12:44:44;;;;;;;2.10;1.30;;;;;;;;;;4864765;29;20221;-79
2024/04/04 12:47:10;;;;;;;3.63;1.30;;;;;;;;;;4880969;29;20234;-79
2024/04/04 12:49:35;;;;;;;2.70;1.40;;;;;;;;;;4896288;29;20925;-79
2024/04/04 12:52:01;;;;;;;1.80;1.23;;;;;;;;;;4879773;29;20257;-80
2024/04/04 12:54:26;;;;;;;2.20;1.50;;;;;;;;;;4880416;29;20248;-80
2024/04/04 12:56:52;;;;;;;1.90;1.50;;;;;;;;;;4881269;29;20227;-78
2024/04/04 12:59:20;;;;;;;1.73;1.40;;;;;;;;;;4864213;29;20750;-79
2024/04/04 13:01:46;;;;;;;1.87;1.60;;;;;;;;;;4865327;29;20638;-79
2024/04/04 13:04:11;;;;;;;1.93;1.60;;;;;;;;;;4864198;29;20256;-79
2024/04/04 13:06:37;;;;;;;1.65;1.40;;;;;;;;;;4864208;29;20232;-79
2024/04/04 13:09:02;;;;;;;2.57;1.40;;;;;;;;;;4883695;29;21016;-81
2024/04/04 13:11:28;;;;;;;2.55;1.70;;;;;;;;;;4860725;29;20289;-78
2024/04/04 13:13:53;;;;;;;2.15;1.40;;;;;;;;;;4880268;29;20625;-80
2024/04/04 13:16:19;;;;;;;1.77;1.50;;;;;;;;;;4877304;29;20633;-79
2024/04/04 13:18:44;;;;;;;2.28;1.55;;;;;;;;;;4880640;29;20240;-79
2024/04/04 13:21:10;;;;;;;2.42;1.50;;;;;;;;;;4861868;29;20229;-81
2024/04/04 13:23:35;;;;;;;4.05;1.20;;;;;;;;;;4864698;29;20236;-79
2024/04/04 13:26:03;;;;;;;1.90;1.15;;;;;;;;;;4861805;29;20238;-77
2024/04/04 13:28:31;;;;;;;1.70;1.37;;;;;;;;;;4890245;29;20237;-78
2024/04/04 13:30:57;;;;;;;2.00;1.40;;;;;;;;;;4866665;29;20562;-78
2024/04/04 13:33:24;;;;;;;2.43;1.43;;;;;;;;;;4867217;29;20220;-78
2024/04/04 13:35:51;;;;;;;2.47;1.40;;;;;;;;;;4861186;29;20221;-78
2024/04/04 13:38:19;;;;;;;2.07;1.37;;;;;;;;;;4840403;29;20230;-78
2024/04/04 13:40:48;;;;;;;2.25;1.20;;;;;;;;;;4841734;29;20240;-78
2024/04/04 13:43:13;;;;;;;3.00;1.15;;;;;;;;;;4850776;29;20366;-78
2024/04/04 13:45:39;;;;;;;2.13;1.20;;;;;;;;;;4858648;29;20234;-75
2024/04/04 13:48:09;;;;;;;2.80;1.45;;;;;;;;;;4876943;29;20229;-76
2024/04/04 13:50:35;;;;;;;2.78;1.10;;;;;;;;;;4878169;29;20229;-78
2024/04/04 13:53:00;;;;;;;1.50;1.10;;;;;;;;;;4856959;29;20239;-78
2024/04/04 13:55:28;;;;;;;2.40;1.10;;;;;;;;;;4847335;29;20228;-77
2024/04/04 13:57:53;;;;;;;1.92;1.10;;;;;;;;;;4873897;29;20226;-79
2024/04/04 14:00:19;;;;;;;3.65;1.58;;;;;;;;;;4875234;29;20226;-78
2024/04/04 14:02:45;;;;;;;1.97;1.03;;;;;;;;;;4879626;29;20311;-79
2024/04/04 14:05:10;;;;;;;1.57;1.00;;;;;;;;;;4893647;29;20237;-79
2024/04/04 14:07:36;;;;;;;1.87;0.70;;;;;;;;;;4863935;29;20958;-79
2024/04/04 14:10:05;;;;;;;2.33;0.80;;;;;;;;;;4868335;29;20231;-80
2024/04/04 14:12:33;;;;;;;1.13;0.60;;;;;;;;;;4864829;29;20236;-80
2024/04/04 14:14:59;;;;;;;0.90;0.50;;;;;;;;;;4866769;29;20236;-79
2024/04/04 14:17:26;;;;;;;1.13;0.60;;;;;;;;;;4860073;29;20226;-78
2024/04/04 14:19:52;;;;;;;1.03;0.60;;;;;;;;;;4845321;29;20319;-77
2024/04/04 14:22:18;;;;;;;1.30;1.20;;;;;;;;;;4876278;29;20245;-79
2024/04/04 14:24:44;;;;;;;2.07;0.60;;;;;;;;;;4844202;29;20213;-77
2024/04/04 14:27:09;;;;;;;0.83;0.50;;;;;;;;;;4872634;29;20255;-79
2024/04/04 14:29:35;;;;;;;0.43;0.43;;;;;;;;;;4849997;29;20710;-78
2024/04/04 14:32:01;;;;;;;1.33;0.60;;;;;;;;;;4872907;29;20756;-77
2024/04/04 14:34:27;;;;;;;1.97;0.70;;;;;;;;;;4848947;29;20292;-77
2024/04/04 14:36:52;;;;;;;1.83;0.60;;;;;;;;;;4877012;29;20227;-77
2024/04/04 14:39:20;;;;;;;2.50;0.63;;;;;;;;;;4858837;29;20228;-78
2024/04/04 14:41:46;;;;;;;1.33;0.70;;;;;;;;;;4848014;29;20221;-77